createdAt,value
2018-11-07T00:00:57.539Z,10.40
2018-11-07T00:03:26.082Z,13.30
2018-11-07T00:05:54.550Z,9.63
2018-11-07T00:08:23.150Z,13.03
2018-11-07T00:10:51.679Z,10.37
2018-11-07T00:13:20.110Z,9.83
2018-11-07T00:15:48.612Z,8.53
2018-11-07T00:18:17.134Z,11.43
2018-11-07T00:20:45.591Z,8.77
2018-11-07T00:23:14.013Z,9.70
2018-11-07T00:25:42.495Z,8.93
2018-11-07T00:28:10.939Z,11.17
2018-11-07T00:30:39.424Z,8.90
2018-11-07T00:33:07.845Z,10.03
2018-11-07T00:35:36.300Z,14.43
2018-11-07T00:38:05.070Z,10.53
2018-11-07T00:40:33.881Z,13.27
2018-11-07T00:43:02.323Z,10.63
2018-11-07T00:45:30.754Z,10.77
2018-11-07T00:47:59.156Z,10.07
2018-11-07T00:50:27.612Z,9.27
2018-11-07T00:52:56.061Z,9.17
2018-11-07T00:55:24.499Z,9.93
2018-11-07T00:57:53.202Z,10.03
2018-11-07T01:00:21.949Z,9.93
2018-11-07T01:02:50.547Z,9.57
2018-11-07T01:05:19.216Z,10.63
2018-11-07T01:07:48.226Z,9.50
2018-11-07T01:10:16.761Z,12.87
2018-11-07T01:12:45.406Z,10.83
2018-11-07T01:15:14.624Z,11.10
2018-11-07T01:17:43.066Z,10.23
2018-11-07T01:20:13.114Z,11.10
2018-11-07T01:22:41.580Z,11.07
2018-11-07T01:25:10.076Z,9.97
2018-11-07T01:27:38.507Z,11.23
2018-11-07T01:30:08.806Z,10.90
2018-11-07T01:32:37.255Z,9.07
2018-11-07T01:35:06.237Z,9.60
2018-11-07T01:37:34.655Z,13.47
2018-11-07T01:40:03.323Z,13.43
2018-11-07T01:42:31.743Z,13.50
2018-11-07T01:45:00.175Z,9.43
2018-11-07T01:47:28.588Z,10.37
2018-11-07T01:49:57.026Z,11.60
2018-11-07T01:52:25.476Z,10.20
2018-11-07T01:54:53.968Z,10.03
2018-11-07T01:57:22.560Z,9.53
2018-11-07T01:59:50.981Z,9.53
2018-11-07T02:02:19.446Z,11.43
2018-11-07T02:04:47.855Z,9.47
2018-11-07T02:07:16.265Z,11.80
2018-11-07T02:09:44.709Z,10.33
2018-11-07T02:12:13.114Z,9.07
2018-11-07T02:14:41.610Z,9.93
2018-11-07T02:17:10.056Z,9.10
2018-11-07T02:19:38.742Z,10.50
2018-11-07T02:22:07.186Z,10.23
2018-11-07T02:24:35.590Z,11.83
2018-11-07T02:27:04.025Z,12.30
2018-11-07T02:29:32.582Z,8.90
2018-11-07T02:32:01.075Z,8.63
2018-11-07T02:34:29.688Z,11.47
2018-11-07T02:36:58.544Z,8.67
2018-11-07T02:39:27.162Z,11.07
2018-11-07T02:41:55.706Z,12.13
2018-11-07T02:44:24.391Z,8.27
2018-11-07T02:46:52.957Z,8.37
2018-11-07T02:49:21.424Z,8.90
2018-11-07T02:51:49.897Z,13.37
2018-11-07T02:54:18.427Z,10.30
2018-11-07T02:56:46.993Z,11.70
2018-11-07T02:59:15.430Z,8.83
2018-11-07T03:01:44.136Z,9.37
2018-11-07T03:04:12.556Z,9.47
2018-11-07T03:06:41.019Z,9.03
2018-11-07T03:09:09.996Z,9.07
2018-11-07T03:11:38.764Z,9.47
2018-11-07T03:14:07.957Z,10.03
2018-11-07T03:16:36.568Z,14.40
2018-11-07T03:19:05.356Z,9.37
2018-11-07T03:21:33.919Z,10.53
2018-11-07T03:24:02.335Z,10.43
2018-11-07T03:26:30.783Z,11.63
2018-11-07T03:28:59.346Z,8.80
2018-11-07T03:31:27.827Z,11.63
2018-11-07T03:33:56.250Z,8.47
2018-11-07T03:36:24.686Z,8.07
2018-11-07T03:38:53.134Z,8.57
2018-11-07T03:41:21.586Z,8.27
2018-11-07T03:43:50.010Z,8.00
2018-11-07T03:46:18.804Z,9.47
2018-11-07T03:48:47.257Z,10.17
2018-11-07T03:51:15.795Z,8.00
2018-11-07T03:53:44.291Z,8.37
2018-11-07T03:56:12.857Z,10.27
2018-11-07T03:58:41.291Z,10.37
2018-11-07T04:01:09.731Z,10.23
2018-11-07T04:03:38.198Z,9.10
2018-11-07T04:06:06.768Z,9.37
2018-11-07T04:08:35.202Z,11.40
2018-11-07T04:11:03.666Z,8.37
2018-11-07T04:13:32.117Z,10.10
2018-11-07T04:16:00.525Z,11.17
2018-11-07T04:18:28.965Z,8.07
2018-11-07T04:20:57.414Z,11.47
2018-11-07T04:23:25.879Z,11.67
2018-11-07T04:25:54.407Z,9.47
2018-11-07T04:28:22.887Z,8.67
2018-11-07T04:30:51.283Z,8.77
2018-11-07T04:33:20.068Z,10.47
2018-11-07T04:35:48.528Z,8.07
2018-11-07T04:38:17.008Z,7.90
2018-11-07T04:40:45.536Z,9.63
2018-11-07T04:43:14.071Z,10.97
2018-11-07T04:45:42.644Z,11.87
2018-11-07T04:48:11.144Z,9.23
2018-11-07T04:50:39.635Z,12.33
2018-11-07T04:53:08.053Z,10.20
2018-11-07T04:55:36.520Z,8.30
2018-11-07T04:58:04.973Z,11.00
2018-11-07T05:00:33.428Z,8.20
2018-11-07T05:03:01.875Z,7.73
2018-11-07T05:05:30.382Z,12.70
2018-11-07T05:07:58.822Z,11.13
2018-11-07T05:10:27.240Z,8.40
2018-11-07T05:12:55.706Z,8.30
2018-11-07T05:15:24.110Z,9.53
2018-11-07T05:17:52.604Z,11.37
2018-11-07T05:20:21.059Z,10.80
2018-11-07T05:22:49.665Z,10.00
2018-11-07T05:25:18.069Z,10.63
2018-11-07T05:27:46.531Z,10.30
2018-11-07T05:30:14.911Z,10.30
2018-11-07T05:32:43.336Z,10.03
2018-11-07T05:35:11.935Z,10.03
2018-11-07T05:37:40.418Z,9.67
2018-11-07T05:40:08.837Z,10.93
2018-11-07T05:42:37.378Z,8.30
2018-11-07T05:45:06.075Z,11.07
2018-11-07T05:47:34.506Z,9.63
2018-11-07T05:50:02.938Z,9.07
2018-11-07T05:52:31.517Z,12.33
2018-11-07T05:54:59.953Z,10.10
2018-11-07T05:57:28.861Z,10.93
2018-11-07T05:59:57.511Z,15.37
2018-11-07T06:02:25.994Z,15.27
2018-11-07T06:04:54.475Z,14.87
2018-11-07T06:07:22.991Z,13.93
2018-11-07T06:09:51.438Z,22.90
2018-11-07T06:12:19.918Z,16.13
2018-11-07T06:14:48.406Z,17.10
2018-11-07T06:17:17.087Z,18.07
2018-11-07T06:19:46.006Z,17.60
2018-11-07T06:22:14.482Z,15.10
2018-11-07T06:24:43.108Z,16.03
2018-11-07T06:27:11.688Z,11.80
2018-11-07T06:29:40.136Z,14.13
2018-11-07T06:32:08.567Z,13.20
2018-11-07T06:34:37.015Z,12.10
2018-11-07T06:37:06.080Z,9.80
2018-11-07T06:39:34.526Z,11.63
2018-11-07T06:42:02.975Z,15.73
2018-11-07T06:44:31.486Z,12.33
2018-11-07T06:47:00.201Z,16.70
2018-11-07T06:49:28.701Z,13.20
2018-11-07T06:51:57.139Z,13.50
2018-11-07T06:54:25.572Z,18.87
2018-11-07T06:56:53.996Z,15.63
2018-11-07T06:59:22.436Z,14.17
2018-11-07T07:01:51.110Z,13.63
2018-11-07T07:04:19.579Z,13.27
2018-11-07T07:06:48.029Z,15.03
2018-11-07T07:09:16.511Z,12.23
2018-11-07T07:11:44.981Z,16.13
2018-11-07T07:14:13.761Z,12.13
2018-11-07T07:16:42.255Z,18.23
2018-11-07T07:19:10.741Z,18.53
2018-11-07T07:21:39.158Z,15.03
2018-11-07T07:24:07.806Z,15.83
2018-11-07T07:26:36.294Z,15.87
2018-11-07T07:29:05.285Z,16.37
2018-11-07T07:31:33.842Z,13.40
2018-11-07T07:34:02.318Z,17.93
2018-11-07T07:36:30.912Z,20.57
2018-11-07T07:38:59.379Z,19.03
2018-11-07T07:41:27.813Z,17.97
2018-11-07T07:43:57.998Z,18.60
2018-11-07T07:46:26.434Z,18.67
2018-11-07T07:48:54.961Z,19.13
2018-11-07T07:51:23.468Z,17.73
2018-11-07T07:53:51.897Z,24.77
2018-11-07T07:56:20.399Z,24.23
2018-11-07T07:58:49.043Z,17.67
2018-11-07T08:01:17.630Z,18.77
2018-11-07T08:03:46.240Z,63.60
2018-11-07T08:06:14.710Z,21.47
2018-11-07T08:08:43.180Z,18.80
2018-11-07T08:11:11.681Z,24.57
2018-11-07T08:13:40.262Z,46.03
2018-11-07T08:16:08.827Z,23.70
2018-11-07T08:18:37.264Z,17.90
2018-11-07T08:21:05.830Z,28.00
2018-11-07T08:23:34.487Z,40.03
2018-11-07T08:26:02.988Z,61.43
2018-11-07T08:28:31.456Z,32.17
2018-11-07T08:31:00.115Z,25.50
2018-11-07T08:33:28.691Z,15.07
2018-11-07T08:35:57.195Z,101.47
2018-11-07T08:38:25.700Z,30.40
2018-11-07T08:40:54.785Z,25.30
2018-11-07T08:43:23.638Z,23.47
2018-11-07T08:45:52.136Z,38.07
2018-11-07T08:48:20.723Z,34.47
2018-11-07T08:50:49.438Z,18.63
2018-11-07T08:53:17.984Z,18.17
2018-11-07T08:55:46.787Z,17.10
2018-11-07T08:58:15.289Z,14.80
2018-11-07T09:00:43.748Z,14.60
2018-11-07T09:03:13.175Z,25.13
2018-11-07T09:05:41.739Z,16.57
2018-11-07T09:08:10.177Z,18.50
2018-11-07T09:10:39.013Z,14.63
2018-11-07T09:13:07.497Z,24.60
2018-11-07T09:15:35.977Z,27.63
2018-11-07T09:18:04.524Z,20.03
2018-11-07T09:20:33.113Z,23.83
2018-11-07T09:23:01.585Z,12.73
2018-11-07T09:25:30.118Z,18.57
2018-11-07T09:27:58.518Z,14.53
2018-11-07T09:30:27.040Z,16.87
2018-11-07T09:32:55.481Z,20.90
2018-11-07T09:35:23.947Z,16.90
2018-11-07T09:37:52.452Z,15.17
2018-11-07T09:40:21.647Z,17.27
2018-11-07T09:42:50.442Z,16.07
2018-11-07T09:45:20.230Z,17.07
2018-11-07T09:47:48.943Z,19.20
2018-11-07T09:50:18.237Z,16.10
2018-11-07T09:52:46.814Z,12.33
2018-11-07T09:55:16.597Z,15.00
2018-11-07T09:57:45.367Z,15.40
2018-11-07T10:00:15.655Z,13.73
2018-11-07T10:02:44.606Z,19.60
2018-11-07T10:05:13.763Z,15.57
2018-11-07T10:07:42.405Z,14.67
2018-11-07T10:10:13.719Z,14.77
2018-11-07T10:12:42.544Z,19.53
2018-11-07T10:15:11.446Z,16.70
2018-11-07T10:17:39.938Z,15.67
2018-11-07T10:20:11.738Z,17.57
2018-11-07T10:22:40.317Z,18.73
2018-11-07T10:25:09.327Z,17.03
2018-11-07T10:27:38.044Z,21.33
2018-11-07T10:30:08.569Z,14.97
2018-11-07T10:32:37.038Z,16.53
2018-11-07T10:35:12.164Z,14.43
2018-11-07T10:37:40.717Z,16.33
2018-11-07T10:40:11.235Z,17.67
2018-11-07T10:42:39.758Z,17.50
2018-11-07T10:45:08.735Z,16.60
2018-11-07T10:47:37.327Z,14.77
2018-11-07T10:50:07.512Z,17.03
2018-11-07T10:52:36.235Z,22.87
2018-11-07T10:55:05.099Z,16.50
2018-11-07T10:57:33.593Z,18.67
2018-11-07T11:00:02.039Z,18.43
2018-11-07T11:02:35.967Z,21.07
2018-11-07T11:05:04.504Z,20.70
2018-11-07T11:07:33.110Z,16.33
2018-11-07T11:10:01.592Z,15.83
2018-11-07T11:12:30.051Z,17.63
2018-11-07T11:14:58.492Z,18.83
2018-11-07T11:17:26.998Z,17.40
2018-11-07T11:19:55.545Z,14.53
2018-11-07T11:22:24.015Z,18.73
2018-11-07T11:24:52.499Z,17.80
2018-11-07T11:27:21.021Z,17.23
2018-11-07T11:29:49.539Z,15.03
2018-11-07T11:32:17.962Z,16.40
2018-11-07T11:34:46.404Z,14.13
2018-11-07T11:37:15.019Z,15.13
2018-11-07T11:39:43.462Z,14.60
2018-11-07T11:42:11.943Z,15.97
2018-11-07T11:44:40.476Z,13.17
2018-11-07T11:47:08.945Z,15.43
2018-11-07T11:49:37.734Z,13.43
2018-11-07T11:52:06.271Z,11.77
2018-11-07T11:54:34.786Z,11.50
2018-11-07T11:57:03.271Z,10.67
2018-11-07T11:59:31.814Z,13.07
2018-11-07T12:02:00.405Z,12.40
2018-11-07T12:04:29.179Z,11.70
2018-11-07T12:06:57.653Z,12.47
2018-11-07T12:09:26.380Z,18.97
2018-11-07T12:11:54.861Z,14.03
2018-11-07T12:14:23.554Z,13.43
2018-11-07T12:16:52.023Z,12.50
2018-11-07T12:19:20.486Z,11.83
2018-11-07T12:21:49.431Z,12.67
2018-11-07T12:24:17.903Z,12.83
2018-11-07T12:26:46.378Z,16.07
2018-11-07T12:29:15.138Z,16.57
2018-11-07T12:31:43.573Z,13.77
2018-11-07T12:34:11.999Z,16.80
2018-11-07T12:36:40.407Z,13.73
2018-11-07T12:39:09.391Z,16.10
2018-11-07T12:41:37.944Z,12.60
2018-11-07T12:44:06.369Z,15.47
2018-11-07T12:46:35.122Z,12.60
2018-11-07T12:49:03.690Z,11.60
2018-11-07T12:51:32.316Z,14.23
2018-11-07T12:54:00.818Z,14.70
2018-11-07T12:56:29.371Z,13.47
2018-11-07T12:58:58.038Z,15.03
2018-11-07T13:01:26.488Z,15.10
2018-11-07T13:03:55.036Z,13.50
2018-11-07T13:06:23.516Z,18.03
2018-11-07T13:08:52.103Z,12.63
2018-11-07T13:11:21.188Z,16.93
2018-11-07T13:13:50.335Z,14.80
2018-11-07T13:16:19.310Z,11.28
2018-11-07T13:18:48.647Z,12.50
2018-11-07T13:21:17.058Z,13.23
2018-11-07T13:23:45.499Z,12.13
2018-11-07T13:26:14.097Z,13.07
2018-11-07T13:28:42.633Z,14.20
2018-11-07T13:31:11.941Z,14.10
2018-11-07T13:33:40.509Z,13.47
2018-11-07T13:36:09.475Z,11.90
2018-11-07T13:38:38.840Z,14.53
2018-11-07T13:41:07.792Z,13.88
2018-11-07T13:43:36.982Z,13.60
2018-11-07T13:46:06.089Z,13.35
2018-11-07T13:48:35.322Z,18.82
2018-11-07T13:51:04.366Z,13.48
2018-11-07T13:53:33.454Z,14.23
2018-11-07T13:56:02.438Z,13.50
2018-11-07T13:58:31.553Z,14.25
2018-11-07T14:01:00.009Z,14.83
2018-11-07T14:03:29.181Z,16.87
2018-11-07T14:05:57.822Z,13.57
2018-11-07T14:08:26.388Z,14.30
2018-11-07T14:10:55.368Z,11.78
2018-11-07T14:13:23.887Z,13.43
2018-11-07T14:15:52.929Z,12.20
2018-11-07T14:18:22.169Z,13.93
2018-11-07T14:20:51.187Z,14.15
2018-11-07T14:23:20.364Z,12.07
2018-11-07T14:25:49.393Z,15.98
2018-11-07T14:28:18.725Z,15.55
2018-11-07T14:30:47.652Z,13.78
2018-11-07T14:33:16.787Z,15.60
2018-11-07T14:35:45.820Z,15.20
2018-11-07T14:38:14.277Z,14.83
2018-11-07T14:40:43.400Z,16.20
2018-11-07T14:43:12.501Z,12.70
2018-11-07T14:45:41.022Z,17.00
2018-11-07T14:48:09.472Z,13.83
2018-11-07T14:50:37.930Z,16.03
2018-11-07T14:53:06.632Z,18.47
2018-11-07T14:55:35.122Z,22.90
2018-11-07T14:58:03.526Z,16.23
2018-11-07T15:00:32.025Z,14.90
2018-11-07T15:03:00.655Z,19.93
2018-11-07T15:05:29.342Z,24.73
2018-11-07T15:07:57.967Z,22.97
2018-11-07T15:10:26.442Z,22.40
2018-11-07T15:12:55.023Z,20.90
2018-11-07T15:15:24.775Z,22.37
2018-11-07T15:17:53.349Z,23.07
2018-11-07T15:20:21.974Z,20.87
2018-11-07T15:22:50.417Z,25.97
2018-11-07T15:25:18.914Z,31.03
2018-11-07T15:27:47.958Z,19.80
2018-11-07T15:30:17.195Z,19.70
2018-11-07T15:32:46.077Z,17.77
2018-11-07T15:35:14.658Z,17.67
2018-11-07T15:37:43.220Z,22.27
2018-11-07T15:40:14.576Z,23.40
2018-11-07T15:42:43.448Z,21.00
2018-11-07T15:45:13.980Z,23.20
2018-11-07T15:47:42.682Z,25.50
2018-11-07T15:50:16.535Z,24.03
2018-11-07T15:52:45.903Z,22.97
2018-11-07T15:55:14.646Z,23.20
2018-11-07T15:57:43.195Z,21.13
2018-11-07T16:00:13.614Z,25.63
2018-11-07T16:02:42.642Z,24.03
2018-11-07T16:05:12.770Z,27.50
2018-11-07T16:07:41.214Z,29.33
2018-11-07T16:10:11.217Z,30.90
2018-11-07T16:12:40.546Z,26.00
2018-11-07T16:15:11.022Z,27.90
2018-11-07T16:17:40.008Z,33.80
2018-11-07T16:20:11.892Z,21.17
2018-11-07T16:22:41.028Z,25.87
2018-11-07T16:25:09.694Z,27.07
2018-11-07T16:27:38.642Z,22.10
2018-11-07T16:30:09.869Z,24.17
2018-11-07T16:32:38.558Z,24.33
2018-11-07T16:35:07.118Z,25.67
2018-11-07T16:37:35.989Z,25.33
2018-11-07T16:40:05.631Z,25.00
2018-11-07T16:42:34.091Z,25.10
2018-11-07T16:45:02.677Z,26.40
2018-11-07T16:47:31.412Z,27.97
2018-11-07T16:49:59.994Z,25.27
2018-11-07T16:52:28.518Z,29.67
2018-11-07T16:54:57.597Z,24.20
2018-11-07T16:57:26.058Z,25.30
2018-11-07T16:59:54.547Z,24.90
2018-11-07T17:02:23.105Z,22.67
2018-11-07T17:04:51.695Z,28.03
2018-11-07T17:07:20.324Z,24.40
2018-11-07T17:09:48.860Z,23.13
2018-11-07T17:12:17.405Z,30.40
2018-11-07T17:14:46.014Z,23.10
2018-11-07T17:17:14.468Z,26.10
2018-11-07T17:19:42.893Z,25.23
2018-11-07T17:22:11.433Z,26.17
2018-11-07T17:24:39.955Z,23.80
2018-11-07T17:27:08.559Z,23.80
2018-11-07T17:29:36.990Z,26.50
2018-11-07T17:32:05.703Z,25.33
2018-11-07T17:34:34.268Z,28.30
2018-11-07T17:37:02.766Z,27.07
2018-11-07T17:39:31.461Z,25.70
2018-11-07T17:41:59.951Z,26.17
2018-11-07T17:44:28.393Z,28.93
2018-11-07T17:46:56.819Z,27.50
2018-11-07T17:49:25.208Z,27.20
2018-11-07T17:51:53.680Z,29.90
2018-11-07T17:54:22.149Z,31.77
2018-11-07T17:56:50.667Z,33.23
2018-11-07T17:59:19.147Z,32.70
2018-11-07T18:01:47.583Z,33.40
2018-11-07T18:04:16.059Z,32.97
2018-11-07T18:06:44.681Z,34.67
2018-11-07T18:09:13.119Z,35.73
2018-11-07T18:11:41.726Z,32.37
2018-11-07T18:14:10.224Z,34.07
2018-11-07T18:16:39.060Z,32.40
2018-11-07T18:19:08.072Z,32.67
2018-11-07T18:21:36.780Z,32.70
2018-11-07T18:24:05.233Z,40.30
2018-11-07T18:26:33.750Z,32.63
2018-11-07T18:29:02.204Z,36.27
2018-11-07T18:31:30.648Z,49.63
2018-11-07T18:33:59.199Z,37.57
2018-11-07T18:36:27.789Z,38.67
2018-11-07T18:38:56.278Z,38.37
2018-11-07T18:41:24.712Z,32.90
2018-11-07T18:43:53.178Z,31.43
2018-11-07T18:46:21.626Z,33.30
2018-11-07T18:48:50.116Z,29.53
2018-11-07T18:51:18.595Z,32.00
2018-11-07T18:53:47.045Z,33.97
2018-11-07T18:56:15.827Z,36.47
2018-11-07T18:58:44.362Z,35.40
2018-11-07T19:01:12.983Z,34.57
2018-11-07T19:03:41.471Z,34.10
2018-11-07T19:06:09.943Z,34.40
2018-11-07T19:08:38.429Z,37.97
2018-11-07T19:11:06.996Z,37.40
2018-11-07T19:13:35.432Z,39.70
2018-11-07T19:16:03.874Z,38.33
2018-11-07T19:18:32.434Z,32.93
2018-11-07T19:21:00.914Z,31.90
2018-11-07T19:23:29.412Z,35.30
2018-11-07T19:25:57.859Z,37.10
2018-11-07T19:28:26.342Z,33.43
2018-11-07T19:30:54.803Z,36.50
2018-11-07T19:33:23.337Z,36.67
2018-11-07T19:35:51.767Z,38.97
2018-11-07T19:38:20.697Z,37.77
2018-11-07T19:40:49.122Z,34.07
2018-11-07T19:43:17.574Z,35.90
2018-11-07T19:45:46.038Z,34.40
2018-11-07T19:48:14.579Z,35.53
2018-11-07T19:50:43.132Z,35.17
2018-11-07T19:53:12.297Z,35.57
2018-11-07T19:55:40.822Z,33.73
2018-11-07T19:58:09.332Z,37.37
2018-11-07T20:00:37.790Z,34.30
2018-11-07T20:03:06.388Z,36.23
2018-11-07T20:05:34.822Z,35.80
2018-11-07T20:08:03.317Z,35.83
2018-11-07T20:10:31.756Z,35.60
2018-11-07T20:13:03.113Z,40.13
2018-11-07T20:15:37.792Z,59.13
2018-11-07T20:18:06.462Z,42.13
2018-11-07T20:20:34.908Z,35.33
2018-11-07T20:23:03.413Z,36.03
2018-11-07T20:25:42.135Z,35.73
2018-11-07T20:28:10.790Z,31.53
2018-11-07T20:30:39.609Z,34.60
2018-11-07T20:33:08.059Z,33.07
2018-11-07T20:35:36.568Z,33.93
2018-11-07T20:38:05.260Z,37.07
2018-11-07T20:40:33.759Z,32.43
2018-11-07T20:43:02.218Z,32.57
2018-11-07T20:45:30.655Z,32.90
2018-11-07T20:47:59.102Z,35.97
2018-11-07T20:50:27.590Z,30.17
2018-11-07T20:52:56.274Z,34.83
2018-11-07T20:55:24.899Z,34.30
2018-11-07T20:57:53.347Z,31.10
2018-11-07T21:00:22.939Z,30.53
2018-11-07T21:02:51.658Z,29.93
2018-11-07T21:05:20.188Z,32.50
2018-11-07T21:07:48.885Z,29.00
2018-11-07T21:10:18.657Z,28.67
2018-11-07T21:12:47.512Z,29.33
2018-11-07T21:15:17.249Z,33.93
2018-11-07T21:17:45.870Z,26.27
2018-11-07T21:20:14.330Z,27.30
2018-11-07T21:22:43.086Z,28.70
2018-11-07T21:25:12.022Z,27.37
2018-11-07T21:27:41.366Z,31.17
2018-11-07T21:30:11.934Z,26.87
2018-11-07T21:32:40.878Z,27.23
2018-11-07T21:35:09.428Z,29.40
2018-11-07T21:37:38.111Z,25.27
2018-11-07T21:40:08.528Z,28.83
2018-11-07T21:42:37.008Z,24.17
2018-11-07T21:45:07.332Z,27.70
2018-11-07T21:47:35.782Z,27.23
2018-11-07T21:50:07.220Z,25.73
2018-11-07T21:52:36.274Z,23.97
2018-11-07T21:55:05.266Z,23.43
2018-11-07T21:57:33.775Z,27.30
2018-11-07T22:00:02.257Z,25.70
2018-11-07T22:02:30.707Z,24.57
2018-11-07T22:04:59.356Z,26.17
2018-11-07T22:07:27.872Z,27.93
2018-11-07T22:09:56.423Z,26.77
2018-11-07T22:12:24.943Z,26.87
2018-11-07T22:14:53.367Z,28.90
2018-11-07T22:17:21.780Z,25.20
2018-11-07T22:19:50.434Z,26.13
2018-11-07T22:22:18.890Z,29.03
2018-11-07T22:24:47.631Z,25.90
2018-11-07T22:27:16.130Z,24.53
2018-11-07T22:29:44.742Z,28.20
2018-11-07T22:32:13.204Z,26.90
2018-11-07T22:34:41.743Z,26.53
2018-11-07T22:37:10.225Z,25.93
2018-11-07T22:39:38.822Z,23.03
2018-11-07T22:42:07.283Z,24.97
2018-11-07T22:44:35.921Z,27.07
2018-11-07T22:47:04.439Z,24.37
2018-11-07T22:49:33.005Z,25.73
2018-11-07T22:52:01.435Z,25.77
2018-11-07T22:54:30.038Z,28.70
2018-11-07T22:56:58.607Z,29.53
2018-11-07T22:59:27.126Z,24.63
2018-11-07T23:01:55.570Z,25.50
2018-11-07T23:04:24.042Z,27.10
2018-11-07T23:06:52.492Z,25.77
2018-11-07T23:09:20.944Z,28.77
2018-11-07T23:11:49.407Z,25.27
2018-11-07T23:14:17.859Z,24.13
2018-11-07T23:16:46.349Z,25.37
2018-11-07T23:19:14.859Z,26.13
2018-11-07T23:21:43.439Z,30.77
2018-11-07T23:24:11.923Z,26.97
2018-11-07T23:26:40.435Z,25.93
2018-11-07T23:29:08.882Z,26.03
2018-11-07T23:31:37.502Z,28.27
2018-11-07T23:34:06.584Z,28.93
2018-11-07T23:36:35.507Z,25.73
2018-11-07T23:39:05.886Z,26.03
2018-11-07T23:41:34.586Z,26.57
2018-11-07T23:44:03.242Z,26.27
2018-11-07T23:46:31.744Z,29.23
2018-11-07T23:49:00.192Z,23.97
2018-11-07T23:51:28.808Z,29.67
2018-11-07T23:53:57.271Z,27.17
2018-11-07T23:56:25.782Z,24.70
2018-11-07T23:58:54.243Z,24.43
